createdAt,value
2018-07-06T00:01:42.029Z,17.50
2018-07-06T00:05:26.588Z,17.27
2018-07-06T00:09:11.400Z,14.40
2018-07-06T00:12:55.941Z,17.73
2018-07-06T00:16:40.597Z,18.40
2018-07-06T00:20:25.180Z,18.20
2018-07-06T00:24:09.809Z,19.00
2018-07-06T00:27:48.373Z,17.13
2018-07-06T00:31:32.930Z,17.87
2018-07-06T00:35:17.552Z,17.40
2018-07-06T00:39:02.108Z,16.60
2018-07-06T00:42:46.667Z,18.13
2018-07-06T00:46:31.865Z,19.40
2018-07-06T00:50:10.495Z,16.67
2018-07-06T00:53:48.935Z,19.57
2018-07-06T00:57:35.712Z,16.40
2018-07-06T01:01:20.200Z,18.83
2018-07-06T01:04:58.807Z,19.73
2018-07-06T01:08:43.403Z,20.00
2018-07-06T01:12:33.530Z,21.33
2018-07-06T01:16:18.076Z,19.17
2018-07-06T01:20:02.746Z,19.90
2018-07-06T01:23:47.425Z,17.40
2018-07-06T01:27:32.284Z,23.10
2018-07-06T01:31:16.924Z,21.67
2018-07-06T01:34:55.604Z,21.50
2018-07-06T01:38:40.220Z,21.40
2018-07-06T01:42:18.786Z,20.70
2018-07-06T01:46:03.323Z,20.07
2018-07-06T01:49:47.926Z,21.33
2018-07-06T01:53:32.551Z,20.70
2018-07-06T01:57:17.108Z,20.17
2018-07-06T02:01:01.712Z,21.00
2018-07-06T02:04:46.303Z,18.80
2018-07-06T02:08:30.933Z,20.17
2018-07-06T02:12:15.638Z,20.53
2018-07-06T02:16:00.350Z,19.73
2018-07-06T02:19:44.824Z,19.40
2018-07-06T02:23:29.368Z,20.60
2018-07-06T02:27:13.976Z,19.37
2018-07-06T02:30:58.617Z,19.93
2018-07-06T02:34:43.374Z,19.83
2018-07-06T02:38:28.061Z,21.07
2018-07-06T02:42:12.577Z,20.07
2018-07-06T02:45:57.116Z,20.20
2018-07-06T02:49:41.519Z,20.50
2018-07-06T02:53:26.355Z,21.30
2018-07-06T02:57:11.193Z,22.27
2018-07-06T03:00:56.013Z,21.83
2018-07-06T03:04:41.209Z,23.60
2018-07-06T03:08:19.706Z,21.93
2018-07-06T03:12:04.250Z,23.23
2018-07-06T03:15:48.898Z,21.87
2018-07-06T03:19:33.608Z,19.97
2018-07-06T03:23:18.147Z,19.73
2018-07-06T03:27:02.909Z,20.10
2018-07-06T03:30:47.653Z,21.37
2018-07-06T03:34:26.267Z,20.30
2018-07-06T03:38:10.881Z,20.07
2018-07-06T03:41:55.653Z,19.03
2018-07-06T03:45:40.363Z,18.57
2018-07-06T03:49:24.879Z,16.87
2018-07-06T03:53:09.462Z,16.60
2018-07-06T03:56:54.196Z,19.27
2018-07-06T04:00:39.079Z,16.00
2018-07-06T04:04:23.612Z,14.53
2018-07-06T04:08:08.345Z,15.40
2018-07-06T04:11:53.033Z,15.83
2018-07-06T04:15:37.778Z,14.47
2018-07-06T04:19:22.421Z,12.93
2018-07-06T04:23:06.959Z,13.33
2018-07-06T04:26:51.573Z,13.33
2018-07-06T04:30:36.186Z,13.87
2018-07-06T04:34:20.988Z,14.33
2018-07-06T04:38:05.562Z,14.37
2018-07-06T04:41:50.087Z,15.00
2018-07-06T04:45:34.665Z,15.47
2018-07-06T04:49:19.280Z,15.67
2018-07-06T04:53:03.940Z,14.33
2018-07-06T04:56:48.600Z,14.80
2018-07-06T05:00:33.641Z,14.80
2018-07-06T05:04:18.277Z,15.20
2018-07-06T05:08:02.784Z,15.10
2018-07-06T05:11:47.278Z,15.53
2018-07-06T05:15:31.748Z,15.33
2018-07-06T05:19:16.178Z,13.83
2018-07-06T05:23:00.788Z,13.67
2018-07-06T05:26:45.385Z,14.27
2018-07-06T05:30:30.045Z,12.67
2018-07-06T05:34:08.769Z,12.00
2018-07-06T05:37:53.438Z,12.27
2018-07-06T05:41:40.001Z,11.90
2018-07-06T05:45:24.881Z,13.20
2018-07-06T05:49:09.456Z,13.90
2018-07-06T05:52:54.065Z,13.10
2018-07-06T05:56:38.668Z,11.80
2018-07-06T06:00:23.266Z,13.57
2018-07-06T06:04:07.804Z,13.70
2018-07-06T06:07:40.050Z,14.20
2018-07-06T06:11:13.280Z,14.70
2018-07-06T06:14:46.534Z,17.83
2018-07-06T06:18:19.562Z,28.33
2018-07-06T06:21:52.820Z,25.47
2018-07-06T06:25:25.793Z,27.40
2018-07-06T06:28:59.208Z,8.23
2018-07-06T06:32:32.453Z,0.60
2018-07-06T06:36:05.703Z,0.20
2018-07-06T06:39:38.947Z,1.27
2018-07-06T06:43:12.193Z,0.20
2018-07-06T06:46:45.536Z,0.20
2018-07-06T06:50:18.656Z,0.20
2018-07-06T06:53:51.912Z,0.20
2018-07-06T06:57:25.150Z,0.20
2018-07-06T07:00:58.403Z,0.20
2018-07-06T07:04:31.628Z,0.20
2018-07-06T07:08:04.859Z,0.30
2018-07-06T07:11:38.081Z,0.40
2018-07-06T07:15:11.325Z,0.20
2018-07-06T07:18:44.564Z,0.20
2018-07-06T07:22:17.875Z,0.20
2018-07-06T07:25:51.099Z,0.20
2018-07-06T07:29:24.355Z,0.20
2018-07-06T07:32:57.591Z,0.20
2018-07-06T07:36:30.836Z,0.20
2018-07-06T07:40:04.070Z,0.20
2018-07-06T07:43:37.324Z,0.20
2018-07-06T07:47:10.573Z,0.30
2018-07-06T07:50:59.869Z,0.20
2018-07-06T07:54:41.373Z,0.20
2018-07-06T07:58:14.544Z,0.20
2018-07-06T08:01:47.811Z,0.20
2018-07-06T08:05:21.052Z,0.27
2018-07-06T08:08:54.321Z,0.20
2018-07-06T08:12:27.769Z,0.20
2018-07-06T08:16:01.012Z,0.20
2018-07-06T08:19:34.252Z,0.50
2018-07-06T08:23:07.508Z,0.20
2018-07-06T08:26:40.748Z,0.30
2018-07-06T08:30:13.979Z,0.20
2018-07-06T08:33:51.412Z,0.30
2018-07-06T08:37:40.306Z,0.20
2018-07-06T08:41:13.528Z,0.30
2018-07-06T08:44:46.795Z,0.20
2018-07-06T08:48:20.000Z,0.20
2018-07-06T08:51:53.360Z,0.20
2018-07-06T08:55:27.384Z,0.20
2018-07-06T08:59:00.624Z,0.20
2018-07-06T09:02:33.872Z,0.20
2018-07-06T09:06:06.848Z,0.70
2018-07-06T09:09:40.093Z,0.20
2018-07-06T09:13:13.625Z,0.20
2018-07-06T09:16:46.541Z,0.20
2018-07-06T09:20:19.784Z,0.20
2018-07-06T09:23:53.035Z,0.23
2018-07-06T09:27:26.272Z,0.20
2018-07-06T09:30:59.497Z,0.20
2018-07-06T09:34:32.748Z,0.20
2018-07-06T09:38:05.960Z,0.20
2018-07-06T09:41:38.935Z,0.20
2018-07-06T09:45:12.189Z,0.20
2018-07-06T09:48:45.488Z,0.20
2018-07-06T09:52:18.721Z,0.20
2018-07-06T09:55:51.955Z,0.20
2018-07-06T09:59:24.940Z,0.30
2018-07-06T10:02:58.184Z,1.17
2018-07-06T10:06:31.408Z,0.20
2018-07-06T10:10:04.649Z,0.20
2018-07-06T10:13:37.992Z,0.20
2018-07-06T10:17:11.197Z,0.30
2018-07-06T10:20:44.460Z,0.20
2018-07-06T10:24:17.684Z,0.20
2018-07-06T10:28:02.333Z,0.30
2018-07-06T10:31:49.655Z,0.43
2018-07-06T10:35:22.880Z,0.20
2018-07-06T10:38:56.109Z,0.20
2018-07-06T10:42:29.330Z,0.20
2018-07-06T10:46:02.576Z,0.20
2018-07-06T10:49:36.068Z,0.30
2018-07-06T10:53:09.314Z,0.30
2018-07-06T10:56:42.544Z,0.20
2018-07-06T11:00:15.760Z,0.20
2018-07-06T11:03:48.988Z,0.20
2018-07-06T11:07:22.206Z,0.20
2018-07-06T11:10:55.449Z,0.20
2018-07-06T11:14:28.687Z,0.30
2018-07-06T11:18:01.931Z,0.20
2018-07-06T11:21:35.205Z,0.30
2018-07-06T11:25:08.481Z,0.20
2018-07-06T11:28:41.704Z,0.40
2018-07-06T11:32:15.044Z,0.30
2018-07-06T11:35:48.206Z,0.30
2018-07-06T11:39:21.450Z,0.40
2018-07-06T11:42:54.675Z,0.30
2018-07-06T11:46:27.931Z,0.30
2018-07-06T11:50:01.174Z,0.20
2018-07-06T11:53:34.408Z,0.30
2018-07-06T11:57:07.669Z,0.30
2018-07-06T12:00:40.913Z,0.30
2018-07-06T12:04:14.233Z,0.30
2018-07-06T12:07:47.403Z,0.20
2018-07-06T12:11:20.639Z,0.27
2018-07-06T12:14:53.636Z,0.30
2018-07-06T12:18:26.880Z,0.30
2018-07-06T12:22:00.107Z,0.30
2018-07-06T12:25:33.353Z,0.30
2018-07-06T12:29:06.599Z,0.30
2018-07-06T12:32:39.844Z,0.30
2018-07-06T12:36:13.056Z,0.33
2018-07-06T12:39:46.300Z,0.30
2018-07-06T12:43:19.553Z,0.40
2018-07-06T12:46:52.785Z,0.30
2018-07-06T12:50:26.007Z,0.30
2018-07-06T12:53:59.237Z,0.30
2018-07-06T12:57:32.476Z,0.30
2018-07-06T13:01:05.887Z,4.43
2018-07-06T13:04:39.140Z,4.37
2018-07-06T13:08:12.384Z,4.20
2018-07-06T13:11:45.623Z,4.27
2018-07-06T13:15:18.910Z,4.50
2018-07-06T13:18:52.136Z,4.00
2018-07-06T13:22:25.372Z,4.10
2018-07-06T13:25:58.863Z,3.87
2018-07-06T13:29:32.138Z,3.40
2018-07-06T13:33:05.452Z,4.60
2018-07-06T13:36:38.799Z,3.57
2018-07-06T13:40:12.047Z,2.90
2018-07-06T13:43:45.284Z,3.50
2018-07-06T13:47:18.510Z,3.27
2018-07-06T13:50:51.744Z,2.90
2018-07-06T13:54:24.959Z,2.63
2018-07-06T13:57:58.202Z,3.87
2018-07-06T14:01:31.511Z,3.17
2018-07-06T14:05:04.765Z,3.23
2018-07-06T14:08:38.103Z,3.17
2018-07-06T14:12:11.353Z,3.10
2018-07-06T14:15:44.628Z,2.87
2018-07-06T14:19:17.908Z,2.73
2018-07-06T14:22:51.133Z,2.83
2018-07-06T14:26:24.364Z,2.60
2018-07-06T14:29:57.580Z,2.80
2018-07-06T14:33:30.816Z,2.97
2018-07-06T14:37:04.045Z,2.77
2018-07-06T14:40:37.274Z,2.60
2018-07-06T14:44:10.529Z,2.40
2018-07-06T14:47:43.756Z,2.60
2018-07-06T14:51:17.006Z,2.50
2018-07-06T14:54:50.269Z,2.20
2018-07-06T14:58:23.514Z,2.27
2018-07-06T15:01:56.785Z,2.77
2018-07-06T15:05:30.008Z,2.40
2018-07-06T15:09:03.528Z,2.50
2018-07-06T15:12:36.724Z,2.60
2018-07-06T15:16:09.979Z,2.87
2018-07-06T15:19:43.306Z,2.87
2018-07-06T15:23:16.629Z,2.50
2018-07-06T15:26:49.898Z,2.53
2018-07-06T15:30:23.136Z,2.33
2018-07-06T15:33:56.341Z,2.77
2018-07-06T15:37:29.901Z,3.07
2018-07-06T15:41:03.294Z,2.63
2018-07-06T15:44:36.339Z,2.30
2018-07-06T15:48:09.333Z,2.77
2018-07-06T15:51:43.192Z,2.73
2018-07-06T15:55:16.412Z,2.83
2018-07-06T15:58:49.772Z,2.60
2018-07-06T16:02:23.112Z,2.10
2018-07-06T16:05:56.463Z,2.30
2018-07-06T16:09:29.441Z,2.80
2018-07-06T16:13:03.315Z,2.63
2018-07-06T16:16:36.539Z,2.30
2018-07-06T16:20:09.777Z,2.70
2018-07-06T16:23:43.155Z,2.70
2018-07-06T16:27:16.371Z,2.13
2018-07-06T16:30:49.419Z,2.23
2018-07-06T16:34:22.822Z,2.50
2018-07-06T16:37:56.037Z,3.13
2018-07-06T16:41:29.441Z,2.23
2018-07-06T16:45:02.764Z,2.30
2018-07-06T16:48:36.016Z,2.20
2018-07-06T16:52:09.327Z,2.67
2018-07-06T16:55:42.662Z,2.90
2018-07-06T16:59:15.916Z,2.63
2018-07-06T17:02:49.245Z,2.83
2018-07-06T17:06:22.520Z,2.90
2018-07-06T17:09:55.818Z,2.90
2018-07-06T17:13:29.090Z,3.20
2018-07-06T17:17:02.345Z,3.20
2018-07-06T17:20:35.593Z,3.27
2018-07-06T17:24:08.886Z,3.50
2018-07-06T17:27:42.177Z,4.03
2018-07-06T17:31:15.185Z,3.87
2018-07-06T17:34:48.415Z,4.40
2018-07-06T17:38:21.667Z,3.30
2018-07-06T17:41:54.669Z,3.80
2018-07-06T17:45:27.907Z,3.37
2018-07-06T17:49:02.415Z,4.03
2018-07-06T17:52:35.682Z,3.90
2018-07-06T17:56:08.982Z,4.00
2018-07-06T17:59:41.997Z,3.80
2018-07-06T18:03:22.520Z,3.50
2018-07-06T18:06:56.860Z,3.90
2018-07-06T18:10:30.165Z,4.07
2018-07-06T18:14:07.811Z,4.90
2018-07-06T18:17:41.189Z,4.10
2018-07-06T18:21:14.180Z,4.53
2018-07-06T18:24:47.424Z,4.10
2018-07-06T18:28:20.660Z,4.13
2018-07-06T18:31:53.893Z,4.67
2018-07-06T18:35:27.960Z,4.53
2018-07-06T18:39:01.176Z,4.53
2018-07-06T18:42:34.408Z,5.07
2018-07-06T18:46:07.706Z,4.20
2018-07-06T18:49:40.702Z,4.57
2018-07-06T18:53:13.701Z,4.27
2018-07-06T18:56:46.957Z,4.30
2018-07-06T19:00:20.215Z,4.60
2018-07-06T19:03:53.473Z,4.87
2018-07-06T19:07:26.729Z,4.50
2018-07-06T19:10:59.968Z,4.60
2018-07-06T19:14:33.347Z,4.33
2018-07-06T19:18:06.630Z,5.77
2018-07-06T19:21:39.884Z,5.57
2018-07-06T19:25:13.250Z,4.93
2018-07-06T19:28:46.495Z,5.70
2018-07-06T19:32:19.524Z,5.30
2018-07-06T19:35:52.711Z,5.53
2018-07-06T19:39:25.955Z,5.47
2018-07-06T19:42:59.196Z,5.20
2018-07-06T19:46:32.434Z,5.23
2018-07-06T19:50:05.748Z,4.97
2018-07-06T19:54:25.604Z,5.30
2018-07-06T19:57:58.827Z,5.60
2018-07-06T20:01:32.075Z,6.63
2018-07-06T20:05:05.342Z,5.10
2018-07-06T20:08:38.659Z,5.20
2018-07-06T20:12:11.954Z,5.23
2018-07-06T20:15:45.192Z,4.83
2018-07-06T20:19:18.526Z,4.67
2018-07-06T20:22:51.810Z,5.63
2018-07-06T20:26:25.040Z,4.90
2018-07-06T20:29:58.298Z,5.03
2018-07-06T20:33:33.833Z,5.10
2018-07-06T20:37:07.354Z,5.87
2018-07-06T20:40:40.456Z,5.60
2018-07-06T20:44:13.788Z,5.50
2018-07-06T20:47:48.850Z,5.30
2018-07-06T20:51:22.316Z,5.40
2018-07-06T20:54:55.683Z,5.80
2018-07-06T20:58:28.908Z,5.23
2018-07-06T21:02:03.157Z,5.50
2018-07-06T21:05:36.417Z,5.07
2018-07-06T21:09:09.663Z,5.70
2018-07-06T21:12:42.921Z,5.63
2018-07-06T21:16:15.931Z,6.77
2018-07-06T21:19:49.188Z,7.20
2018-07-06T21:23:22.448Z,7.83
2018-07-06T21:26:55.718Z,6.83
2018-07-06T21:30:28.708Z,6.97
2018-07-06T21:34:01.969Z,7.10
2018-07-06T21:37:35.205Z,6.13
2018-07-06T21:41:08.268Z,7.53
2018-07-06T21:44:41.508Z,6.83
2018-07-06T21:48:14.748Z,6.87
2018-07-06T21:51:47.976Z,7.27
2018-07-06T21:55:21.208Z,6.50
2018-07-06T21:58:54.604Z,6.83
2018-07-06T22:02:27.847Z,7.57
2018-07-06T22:06:01.135Z,8.40
2018-07-06T22:09:34.364Z,7.40
2018-07-06T22:13:08.029Z,7.30
2018-07-06T22:16:41.246Z,7.00
2018-07-06T22:20:14.467Z,6.30
2018-07-06T22:23:47.684Z,7.37
2018-07-06T22:27:20.912Z,7.50
2018-07-06T22:30:54.144Z,6.87
2018-07-06T22:34:27.384Z,8.10
2018-07-06T22:38:00.626Z,7.20
2018-07-06T22:41:33.852Z,7.23
2018-07-06T22:45:07.072Z,7.20
2018-07-06T22:48:40.292Z,6.13
2018-07-06T22:52:13.520Z,6.80
2018-07-06T22:55:46.763Z,6.63
2018-07-06T22:59:19.984Z,6.80
2018-07-06T23:02:58.672Z,7.00
2018-07-06T23:06:31.929Z,6.60
2018-07-06T23:10:04.927Z,7.57
2018-07-06T23:13:38.320Z,7.97
2018-07-06T23:17:11.392Z,7.17
2018-07-06T23:20:44.626Z,7.50
2018-07-06T23:24:17.860Z,7.63
2018-07-06T23:27:51.085Z,7.90
2018-07-06T23:31:24.403Z,7.90
2018-07-06T23:34:57.640Z,6.90
2018-07-06T23:38:30.868Z,6.93
2018-07-06T23:42:04.101Z,8.07
2018-07-06T23:45:37.327Z,8.27
2018-07-06T23:49:10.315Z,7.00
2018-07-06T23:52:44.031Z,7.50
2018-07-06T23:56:17.280Z,6.80
2018-07-06T23:59:50.586Z,6.37
